Time,TemperatureF,DewpointF,PressureIn,WindDirection,WindDirectionDegrees,WindSpeedMPH,WindSpeedGustMPH,Humidity,HourlyPrecipIn,Conditions,Clouds,dailyrainin,SoftwareType,DateUTC
2013-04-18 00:11:00,55.4,13.8,29.76,NW,315,5.8,-999.0,19,-99.99,,,0.00,Acu-Link.com,2013-04-18 06:11:00,
2013-04-18 00:28:00,54.9,14.6,29.77,NNW,337,8.3,-999.0,20,-99.99,,,0.00,Acu-Link.com,2013-04-18 06:28:00,
2013-04-18 00:43:00,53.8,17.9,29.77,NNW,337,8.3,-999.0,24,-99.99,,,0.00,Acu-Link.com,2013-04-18 06:43:00,
2013-04-18 00:58:00,52.3,19.3,29.78,North,0,6.8,-999.0,27,-99.99,,,0.00,Acu-Link.com,2013-04-18 06:58:00,
2013-04-18 01:13:00,51.6,20.4,29.78,North,0,7.3,-999.0,29,-99.99,,,0.00,Acu-Link.com,2013-04-18 07:13:00,
2013-04-18 01:28:00,51.1,20.0,29.78,North,0,6.3,-999.0,29,-99.99,,,0.00,Acu-Link.com,2013-04-18 07:28:00,
2013-04-18 02:00:00,49.8,20.4,29.79,NW,315,4.7,-999.0,31,-99.99,,,0.00,Acu-Link.com,2013-04-18 08:00:00,
2013-04-18 02:39:00,49.8,20.4,29.78,NNW,337,5.3,-999.0,31,-99.99,,,0.00,Acu-Link.com,2013-04-18 08:39:00,
2013-04-18 03:11:00,49.3,20.7,29.78,NNW,337,5.8,-999.0,32,-99.99,,,0.00,Acu-Link.com,2013-04-18 09:11:00,
2013-04-18 03:28:00,48.6,19.4,29.79,NW,315,4.7,-999.0,31,-99.99,,,0.00,Acu-Link.com,2013-04-18 09:28:00,
2013-04-18 03:44:00,48.2,19.0,29.79,NW,315,3.7,-999.0,31,-99.99,,,0.00,Acu-Link.com,2013-04-18 09:44:00,
2013-04-18 04:43:00,47.8,18.7,29.79,NNW,337,5.8,-999.0,31,-99.99,,,0.00,Acu-Link.com,2013-04-18 10:43:00,
2013-04-18 05:03:00,47.3,19.0,29.80,NNW,337,6.8,-999.0,32,-99.99,,,0.00,Acu-Link.com,2013-04-18 11:03:00,
2013-04-18 05:23:00,46.8,19.2,29.81,NNW,337,3.2,-999.0,33,-99.99,,,0.00,Acu-Link.com,2013-04-18 11:23:00,
2013-04-18 05:38:00,46.2,19.4,29.81,NW,315,4.2,-999.0,34,-99.99,,,0.00,Acu-Link.com,2013-04-18 11:38:00,
2013-04-18 05:53:00,46.2,19.4,29.82,NNW,337,5.8,-999.0,34,-99.99,,,0.00,Acu-Link.com,2013-04-18 11:53:00,
2013-04-18 06:09:00,46.2,19.4,29.82,NW,315,6.3,-999.0,34,-99.99,,,0.00,Acu-Link.com,2013-04-18 12:09:00,
2013-04-18 06:25:00,46.2,19.4,29.82,NNW,337,5.8,-999.0,34,-99.99,,,0.00,Acu-Link.com,2013-04-18 12:25:00,
2013-04-18 06:40:00,46.0,19.2,29.84,NW,315,5.8,-999.0,34,-99.99,,,0.00,Acu-Link.com,2013-04-18 12:40:00,
2013-04-18 06:55:00,45.9,19.1,29.83,NNW,337,8.3,-999.0,34,-99.99,,,0.00,Acu-Link.com,2013-04-18 12:55:00,
2013-04-18 07:10:00,46.0,19.9,29.85,NNW,337,5.3,-999.0,35,-99.99,,,0.00,Acu-Link.com,2013-04-18 13:10:00,
2013-04-18 07:25:00,45.9,19.8,29.87,NNW,337,6.3,-999.0,35,-99.99,,,0.00,Acu-Link.com,2013-04-18 13:25:00,
2013-04-18 07:40:00,46.8,20.6,29.87,NNW,337,6.8,-999.0,35,-99.99,,,0.00,Acu-Link.com,2013-04-18 13:40:00,
2013-04-18 07:56:00,48.7,20.2,29.87,NNW,337,3.2,-999.0,32,-99.99,,,0.00,Acu-Link.com,2013-04-18 13:56:00,
2013-04-18 08:11:00,51.4,21.8,29.87,NNW,337,6.3,-999.0,31,-99.99,,,0.00,Acu-Link.com,2013-04-18 14:11:00,
2013-04-18 08:41:00,52.9,20.7,29.88,NNW,337,6.3,-999.0,28,-99.99,,,0.00,Acu-Link.com,2013-04-18 14:41:00,
2013-04-18 08:57:00,53.4,19.4,29.88,North,0,8.3,-999.0,26,-99.99,,,0.00,Acu-Link.com,2013-04-18 14:57:00,
2013-04-18 09:12:00,54.1,19.1,29.88,North,0,4.7,-999.0,25,-99.99,,,0.00,Acu-Link.com,2013-04-18 15:12:00,
2013-04-18 09:27:00,57.0,18.5,29.88,NNW,337,6.8,-999.0,22,-99.99,,,0.00,Acu-Link.com,2013-04-18 15:27:00,
2013-04-18 09:42:00,57.2,18.7,29.88,ENE,67,3.7,-999.0,22,-99.99,,,0.00,Acu-Link.com,2013-04-18 15:42:00,
2013-04-18 09:57:00,58.1,17.3,29.89,NE,45,6.8,-999.0,20,-99.99,,,0.00,Acu-Link.com,2013-04-18 15:57:00,
2013-04-18 10:12:00,58.1,17.3,29.88,NW,315,7.3,-999.0,20,-99.99,,,0.00,Acu-Link.com,2013-04-18 16:12:00,
2013-04-18 10:27:00,60.6,16.9,29.88,NNW,337,8.3,-999.0,18,-99.99,,,0.00,Acu-Link.com,2013-04-18 16:27:00,
2013-04-18 10:42:00,62.6,17.2,29.88,NNW,337,8.9,-999.0,17,-99.99,,,0.00,Acu-Link.com,2013-04-18 16:42:00,
2013-04-18 10:57:00,61.9,17.9,29.88,WSW,247,2.7,-999.0,18,-99.99,,,0.00,Acu-Link.com,2013-04-18 16:57:00,
2013-04-18 11:13:00,65.7,16.8,29.88,ENE,67,4.7,-999.0,15,-99.99,,,0.00,Acu-Link.com,2013-04-18 17:13:00,
2013-04-18 11:28:00,64.8,16.1,29.88,West,270,3.2,-999.0,15,-99.99,,,0.00,Acu-Link.com,2013-04-18 17:28:00,
2013-04-18 11:43:00,65.7,15.2,29.87,SW,225,3.2,-999.0,14,-99.99,,,0.00,Acu-Link.com,2013-04-18 17:43:00,
2013-04-18 11:58:00,65.5,13.4,29.88,West,270,6.3,-999.0,13,-99.99,,,0.00,Acu-Link.com,2013-04-18 17:58:00,
2013-04-18 12:13:00,63.0,7.7,29.88,NNW,337,6.3,-999.0,11,-99.99,,,0.00,Acu-Link.com,2013-04-18 18:13:00,
2013-04-18 12:28:00,64.2,8.6,29.87,West,270,4.7,-999.0,11,-99.99,,,0.00,Acu-Link.com,2013-04-18 18:28:00,
2013-04-18 12:43:00,65.5,11.6,29.87,SW,225,6.3,-999.0,12,-99.99,,,0.00,Acu-Link.com,2013-04-18 18:43:00,
2013-04-18 12:58:00,64.9,9.2,29.86,West,270,4.2,-999.0,11,-99.99,,,0.00,Acu-Link.com,2013-04-18 18:58:00,
2013-04-18 13:13:00,65.3,9.5,29.85,West,270,5.3,-999.0,11,-99.99,,,0.00,Acu-Link.com,2013-04-18 19:13:00,
2013-04-18 13:29:00,67.5,9.0,29.86,WSW,247,3.7,-999.0,10,-99.99,,,0.00,Acu-Link.com,2013-04-18 19:29:00,
2013-04-18 13:44:00,67.1,8.7,29.86,West,270,4.7,-999.0,10,-99.99,,,0.00,Acu-Link.com,2013-04-18 19:44:00,
2013-04-18 13:59:00,66.7,8.4,29.84,WNW,292,10.4,-999.0,10,-99.99,,,0.00,Acu-Link.com,2013-04-18 19:59:00,
2013-04-18 14:14:00,68.2,4.7,29.84,WNW,292,10.4,-999.0,8,-99.99,,,0.00,Acu-Link.com,2013-04-18 20:14:00,
2013-04-18 14:29:00,69.4,-4.4,29.84,WSW,247,8.9,-999.0,5,-99.99,,,0.00,Acu-Link.com,2013-04-18 20:29:00,
2013-04-18 14:44:00,66.6,-2.6,29.84,WSW,247,6.8,-999.0,6,-99.99,,,0.00,Acu-Link.com,2013-04-18 20:44:00,
2013-04-18 14:59:00,67.5,-2.0,29.83,SW,225,6.8,-999.0,6,-99.99,,,0.00,Acu-Link.com,2013-04-18 20:59:00,
2013-04-18 15:14:00,68.9,-1.0,29.83,SW,225,11.4,-999.0,6,-99.99,,,0.00,Acu-Link.com,2013-04-18 21:14:00,
2013-04-18 15:30:00,69.3,-0.7,29.83,West,270,6.8,-999.0,6,-99.99,,,0.00,Acu-Link.com,2013-04-18 21:30:00,
2013-04-18 15:45:00,68.2,-1.5,29.82,West,270,8.9,-999.0,6,-99.99,,,0.00,Acu-Link.com,2013-04-18 21:45:00,
2013-04-18 16:00:00,69.8,-4.1,29.82,WNW,292,10.9,-999.0,5,-99.99,,,0.00,Acu-Link.com,2013-04-18 22:00:00,
2013-04-18 16:15:00,69.1,-35.4,29.81,NNW,337,11.9,-999.0,1,-99.99,,,0.00,Acu-Link.com,2013-04-18 22:15:00,
2013-04-18 16:30:00,69.4,-35.2,29.80,SSW,202,10.9,-999.0,1,-99.99,,,0.00,Acu-Link.com,2013-04-18 22:30:00,
2013-04-18 16:45:00,69.4,-35.2,29.81,WSW,247,10.4,-999.0,1,-99.99,,,0.00,Acu-Link.com,2013-04-18 22:45:00,
2013-04-18 17:00:00,70.2,-34.7,29.81,WSW,247,4.2,-999.0,1,-99.99,,,0.00,Acu-Link.com,2013-04-18 23:00:00,
2013-04-18 17:19:00,69.4,-35.2,29.81,WSW,247,6.8,-999.0,1,-99.99,,,0.00,Acu-Link.com,2013-04-18 23:19:00,
2013-04-18 17:34:00,69.8,-14.5,29.82,NW,315,3.2,-999.0,3,-99.99,,,0.00,Acu-Link.com,2013-04-18 23:34:00,
2013-04-18 17:50:00,70.0,-34.8,29.81,WNW,292,4.7,-999.0,1,-99.99,,,0.00,Acu-Link.com,2013-04-18 23:50:00,
2013-04-18 18:11:00,68.0,-36.0,29.82,WNW,292,5.3,-999.0,1,-99.99,,,0.00,Acu-Link.com,2013-04-19 00:11:00,
2013-04-18 18:36:00,68.0,-36.0,29.81,WSW,247,4.2,-999.0,1,-99.99,,,0.00,Acu-Link.com,2013-04-19 00:36:00,
2013-04-18 18:52:00,64.2,-38.3,29.82,WNW,292,5.8,-999.0,1,-99.99,,,0.00,Acu-Link.com,2013-04-19 00:52:00,
2013-04-18 19:07:00,62.8,-39.2,29.83,NNW,337,3.7,-999.0,1,-99.99,,,0.00,Acu-Link.com,2013-04-19 01:07:00,
2013-04-18 19:22:00,61.9,-39.7,29.84,WSW,247,6.3,-999.0,1,-99.99,,,0.00,Acu-Link.com,2013-04-19 01:22:00,
2013-04-18 19:37:00,61.2,-40.1,29.85,WNW,292,2.7,-999.0,1,-99.99,,,0.00,Acu-Link.com,2013-04-19 01:37:00,
2013-04-18 19:52:00,60.8,-40.4,29.85,NW,315,3.2,-999.0,1,-99.99,,,0.00,Acu-Link.com,2013-04-19 01:52:00,
2013-04-18 20:07:00,59.9,-40.9,29.86,WNW,292,5.3,-999.0,1,-99.99,,,0.00,Acu-Link.com,2013-04-19 02:07:00,
2013-04-18 20:22:00,59.4,-41.2,29.88,NW,315,3.7,-999.0,1,-99.99,,,0.00,Acu-Link.com,2013-04-19 02:22:00,
2013-04-18 20:38:00,58.3,-41.9,29.89,NW,315,3.7,-999.0,1,-99.99,,,0.00,Acu-Link.com,2013-04-19 02:38:00,
2013-04-18 20:53:00,58.1,-12.5,29.89,North,0,6.3,-999.0,5,-99.99,,,0.00,Acu-Link.com,2013-04-19 02:53:00,
2013-04-18 21:09:00,57.4,-9.3,29.90,North,0,4.2,-999.0,6,-99.99,,,0.00,Acu-Link.com,2013-04-19 03:09:00,
2013-04-18 21:24:00,56.5,-6.8,29.91,North,0,4.2,-999.0,7,-99.99,,,0.00,Acu-Link.com,2013-04-19 03:24:00,
2013-04-18 21:39:00,56.3,-4.2,29.93,North,0,6.8,-999.0,8,-99.99,,,0.00,Acu-Link.com,2013-04-19 03:39:00,
2013-04-18 21:54:00,55.8,-4.6,29.93,North,0,6.8,-999.0,8,-99.99,,,0.00,Acu-Link.com,2013-04-19 03:54:00,
2013-04-18 22:36:00,55.0,-5.2,29.95,NNW,337,3.7,-999.0,8,-99.99,,,0.00,Acu-Link.com,2013-04-19 04:36:00,
2013-04-18 22:51:00,52.5,-2.5,29.94,NNW,337,6.3,-999.0,10,-99.99,,,0.00,Acu-Link.com,2013-04-19 04:51:00,
2013-04-18 23:06:00,51.8,-1.0,29.95,NNW,337,3.7,-999.0,11,-99.99,,,0.00,Acu-Link.com,2013-04-19 05:06:00,
2013-04-18 23:21:00,51.4,-1.3,29.97,North,0,4.7,-999.0,11,-99.99,,,0.00,Acu-Link.com,2013-04-19 05:21:00,
2013-04-18 23:36:00,51.3,-1.4,29.98,NNW,337,8.3,-999.0,11,-99.99,,,0.00,Acu-Link.com,2013-04-19 05:36:00,
2013-04-18 23:52:00,51.3,-3.4,29.99,NW,315,6.8,-999.0,10,-99.99,,,0.00,Acu-Link.com,2013-04-19 05:52:00,